createdAt,value
2022-11-17T00:02:11.327Z,6.20
2022-11-17T00:04:39.082Z,6.20
2022-11-17T00:07:06.839Z,6.20
2022-11-17T00:09:35.935Z,6.20
2022-11-17T00:12:22.883Z,6.20
2022-11-17T00:14:50.859Z,6.20
2022-11-17T00:17:18.688Z,6.20
2022-11-17T00:20:04.073Z,6.20
2022-11-17T00:22:32.869Z,6.20
2022-11-17T00:25:02.124Z,6.20
2022-11-17T00:27:29.997Z,6.20
2022-11-17T00:29:57.916Z,6.20
2022-11-17T00:32:43.111Z,6.20
2022-11-17T00:35:10.825Z,6.20
2022-11-17T00:38:00.329Z,6.20
2022-11-17T00:40:29.772Z,6.20
2022-11-17T00:42:57.509Z,6.20
2022-11-17T00:45:25.225Z,6.20
2022-11-17T00:47:52.899Z,6.20
2022-11-17T00:50:20.677Z,6.20
2022-11-17T00:52:48.395Z,6.10
2022-11-17T00:55:16.340Z,6.20
2022-11-17T00:57:45.391Z,6.20
2022-11-17T01:00:13.859Z,6.10
2022-11-17T01:02:41.561Z,6.10
2022-11-17T01:05:09.836Z,6.10
2022-11-17T01:07:37.626Z,6.10
2022-11-17T01:10:05.943Z,6.10
2022-11-17T01:12:33.642Z,6.10
2022-11-17T01:15:02.760Z,6.10
2022-11-17T01:17:30.498Z,6.10
2022-11-17T01:19:58.349Z,6.10
2022-11-17T01:22:26.029Z,6.10
2022-11-17T01:24:53.770Z,6.10
2022-11-17T01:27:21.457Z,6.10
2022-11-17T01:29:49.252Z,6.00
2022-11-17T01:32:18.269Z,6.00
2022-11-17T01:34:45.974Z,6.10
2022-11-17T01:37:22.572Z,6.00
2022-11-17T01:39:51.289Z,6.00
2022-11-17T01:42:21.507Z,6.10
2022-11-17T01:45:01.222Z,6.00
2022-11-17T01:47:39.496Z,6.00
2022-11-17T01:50:11.410Z,6.00
2022-11-17T01:52:40.944Z,6.00
2022-11-17T01:55:10.773Z,6.00
2022-11-17T01:57:43.029Z,6.00
2022-11-17T02:00:12.674Z,6.00
2022-11-17T02:02:44.350Z,6.00
2022-11-17T02:05:23.669Z,6.00
2022-11-17T02:07:54.653Z,6.00
2022-11-17T02:10:22.641Z,6.00
2022-11-17T02:12:50.887Z,6.00
2022-11-17T02:15:18.638Z,6.00
2022-11-17T02:17:47.785Z,6.00
2022-11-17T02:20:18.111Z,5.90
2022-11-17T02:23:26.265Z,5.90
2022-11-17T02:26:21.560Z,5.90
2022-11-17T02:28:58.483Z,5.90
2022-11-17T02:31:33.735Z,5.90
2022-11-17T02:34:07.799Z,5.90
2022-11-17T02:36:43.250Z,5.90
2022-11-17T02:39:17.103Z,5.90
2022-11-17T02:41:53.399Z,5.90
2022-11-17T02:44:26.744Z,5.90
2022-11-17T02:46:58.798Z,5.90
2022-11-17T02:49:30.636Z,5.80
2022-11-17T02:51:59.586Z,5.80
2022-11-17T02:54:30.549Z,5.80
2022-11-17T02:56:58.502Z,5.80
2022-11-17T02:59:32.211Z,5.80
2022-11-17T03:02:22.795Z,5.80
2022-11-17T03:05:05.278Z,5.80
2022-11-17T03:07:46.968Z,5.80
2022-11-17T03:10:18.238Z,5.80
2022-11-17T03:12:55.833Z,5.80
2022-11-17T03:15:30.663Z,5.80
2022-11-17T03:18:05.394Z,5.80
2022-11-17T03:20:40.737Z,5.70
2022-11-17T03:23:13.282Z,5.70
2022-11-17T03:25:48.246Z,5.70
2022-11-17T03:28:18.696Z,5.70
2022-11-17T03:30:49.568Z,5.70
2022-11-17T03:33:21.389Z,5.70
2022-11-17T03:35:53.820Z,5.70
2022-11-17T03:38:25.800Z,5.60
2022-11-17T03:40:56.729Z,5.60
2022-11-17T03:43:27.616Z,5.60
2022-11-17T03:46:00.272Z,5.60
2022-11-17T03:48:32.726Z,5.60
2022-11-17T03:51:08.032Z,5.60
2022-11-17T03:53:36.923Z,5.60
2022-11-17T03:56:15.431Z,5.60
2022-11-17T03:58:51.123Z,5.50
2022-11-17T04:01:21.736Z,5.50
2022-11-17T04:03:49.576Z,5.50
2022-11-17T04:06:17.300Z,5.50
2022-11-17T04:08:45.215Z,5.50
2022-11-17T04:11:30.483Z,5.50
2022-11-17T04:14:18.241Z,5.50
2022-11-17T04:16:47.396Z,5.40
2022-11-17T04:19:15.245Z,5.40
2022-11-17T04:21:42.987Z,5.50
2022-11-17T04:24:10.843Z,5.50
2022-11-17T04:26:56.461Z,5.40
2022-11-17T04:29:24.158Z,5.40
2022-11-17T04:31:53.185Z,5.40
2022-11-17T04:34:20.957Z,5.50
2022-11-17T04:36:48.689Z,5.40
2022-11-17T04:39:17.335Z,5.40
2022-11-17T04:42:03.323Z,5.40
2022-11-17T04:44:32.791Z,5.40
2022-11-17T04:47:03.551Z,5.40
2022-11-17T04:49:33.046Z,5.40
2022-11-17T04:52:01.168Z,5.40
2022-11-17T04:54:29.325Z,5.40
2022-11-17T04:56:57.830Z,5.40
2022-11-17T04:59:25.913Z,5.40
2022-11-17T05:01:53.717Z,5.40
2022-11-17T05:04:37.026Z,5.40
2022-11-17T05:07:04.849Z,5.40
2022-11-17T05:09:33.038Z,5.40
2022-11-17T05:12:18.348Z,5.40
2022-11-17T05:14:47.589Z,5.30
2022-11-17T05:17:14.681Z,5.30
2022-11-17T05:19:45.327Z,5.40
2022-11-17T05:22:32.666Z,5.30
2022-11-17T05:25:00.608Z,5.30
2022-11-17T05:27:28.373Z,5.30
2022-11-17T05:29:56.144Z,5.30
2022-11-17T05:32:24.092Z,5.30
2022-11-17T05:34:53.142Z,5.30
2022-11-17T05:37:21.087Z,5.30
2022-11-17T05:39:48.784Z,5.20
2022-11-17T05:42:16.624Z,5.20
2022-11-17T05:44:44.352Z,5.20
2022-11-17T05:47:12.468Z,5.20
2022-11-17T05:49:40.141Z,5.20
2022-11-17T05:52:10.198Z,5.20
2022-11-17T05:54:37.971Z,5.20
2022-11-17T05:57:08.340Z,5.20
2022-11-17T05:59:39.851Z,5.20
2022-11-17T06:02:12.417Z,5.20
2022-11-17T06:04:40.594Z,5.20
2022-11-17T06:07:10.645Z,5.20
2022-11-17T06:09:43.108Z,5.20
2022-11-17T06:12:11.942Z,5.20
2022-11-17T06:14:39.907Z,5.20
2022-11-17T06:17:21.866Z,5.20
2022-11-17T06:19:55.004Z,5.20
2022-11-17T06:22:25.354Z,5.20
2022-11-17T06:24:53.569Z,5.20
2022-11-17T06:27:21.550Z,5.20
2022-11-17T06:29:50.479Z,5.10
2022-11-17T06:32:19.945Z,5.20
2022-11-17T06:34:55.365Z,5.10
2022-11-17T06:37:25.103Z,5.10
2022-11-17T06:39:52.877Z,5.10
2022-11-17T06:42:40.632Z,5.10
2022-11-17T06:45:09.489Z,5.10
2022-11-17T06:47:37.152Z,5.10
2022-11-17T06:50:05.845Z,5.10
2022-11-17T06:52:34.971Z,5.10
2022-11-17T06:55:02.817Z,5.10
2022-11-17T06:57:31.097Z,5.10
2022-11-17T06:59:58.789Z,5.10
2022-11-17T07:02:26.455Z,5.10
2022-11-17T07:04:54.251Z,5.10
2022-11-17T07:07:22.071Z,5.10
2022-11-17T07:09:51.165Z,5.10
2022-11-17T07:12:18.890Z,5.10
2022-11-17T07:14:46.772Z,5.10
2022-11-17T07:17:14.476Z,5.10
2022-11-17T07:19:42.210Z,5.00
2022-11-17T07:22:10.031Z,5.00
2022-11-17T07:24:37.795Z,5.10
2022-11-17T07:27:06.885Z,5.00
2022-11-17T07:29:34.688Z,5.00
2022-11-17T07:32:02.494Z,5.00
2022-11-17T07:34:30.229Z,5.00
2022-11-17T07:36:57.927Z,5.00
2022-11-17T07:39:25.633Z,5.00
2022-11-17T07:41:53.313Z,5.00
2022-11-17T07:44:22.357Z,5.00
2022-11-17T07:46:50.020Z,5.00
2022-11-17T07:49:17.944Z,5.00
2022-11-17T07:51:45.624Z,5.00
2022-11-17T07:54:13.529Z,5.00
2022-11-17T07:56:41.358Z,5.00
2022-11-17T07:59:09.197Z,5.00
2022-11-17T08:01:38.338Z,5.00
2022-11-17T08:04:06.489Z,5.10
2022-11-17T08:06:34.223Z,5.10
2022-11-17T08:09:02.032Z,5.00
2022-11-17T08:11:29.754Z,5.00
2022-11-17T08:13:57.458Z,5.10
2022-11-17T08:16:27.221Z,5.10
2022-11-17T08:18:56.298Z,5.10
2022-11-17T08:21:24.143Z,5.10
2022-11-17T08:23:52.749Z,5.10
2022-11-17T08:26:21.420Z,5.10
2022-11-17T08:28:52.270Z,5.10
2022-11-17T08:31:24.512Z,5.10
2022-11-17T08:33:52.227Z,5.10
2022-11-17T08:36:21.379Z,5.10
2022-11-17T08:38:49.133Z,5.10
2022-11-17T08:41:16.824Z,5.10
2022-11-17T08:43:44.581Z,5.10
2022-11-17T08:46:14.037Z,5.10
2022-11-17T08:48:41.820Z,5.10
2022-11-17T08:51:10.291Z,5.10
2022-11-17T08:53:39.399Z,5.10
2022-11-17T08:56:08.556Z,5.20
2022-11-17T08:58:40.116Z,5.20
2022-11-17T09:01:09.477Z,5.20
2022-11-17T09:03:37.500Z,5.20
2022-11-17T09:06:06.566Z,5.20
2022-11-17T09:08:49.617Z,5.20
2022-11-17T09:11:18.863Z,5.20
2022-11-17T09:13:46.890Z,5.20
2022-11-17T09:16:15.836Z,5.20
2022-11-17T09:18:44.080Z,5.20
2022-11-17T09:21:13.215Z,5.20
2022-11-17T09:23:40.937Z,5.20
2022-11-17T09:26:10.464Z,5.20
2022-11-17T09:28:40.582Z,5.20
2022-11-17T09:31:09.439Z,5.20
2022-11-17T09:33:37.902Z,5.30
2022-11-17T09:36:07.215Z,5.30
2022-11-17T09:38:35.412Z,5.30
2022-11-17T09:41:12.707Z,5.30
2022-11-17T09:43:45.945Z,5.30
2022-11-17T09:46:18.690Z,5.30
2022-11-17T09:48:53.069Z,5.30
2022-11-17T09:51:24.467Z,5.30
2022-11-17T09:53:56.366Z,5.30
2022-11-17T09:56:26.603Z,5.30
2022-11-17T09:58:58.709Z,5.30
2022-11-17T10:01:30.180Z,5.30
2022-11-17T10:04:00.165Z,5.30
2022-11-17T10:06:29.816Z,5.30
2022-11-17T10:09:02.725Z,5.20
2022-11-17T10:11:35.231Z,5.20
2022-11-17T10:14:13.114Z,5.20
2022-11-17T10:16:43.827Z,5.20
2022-11-17T10:19:16.663Z,5.10
2022-11-17T10:21:45.005Z,5.10
2022-11-17T10:24:12.719Z,5.10
2022-11-17T10:26:48.468Z,5.10
2022-11-17T10:29:23.806Z,5.10
2022-11-17T10:31:51.546Z,5.10
2022-11-17T10:34:40.632Z,5.00
2022-11-17T10:37:30.029Z,5.00
2022-11-17T10:40:19.392Z,4.90
2022-11-17T10:43:18.834Z,4.90
2022-11-17T10:45:49.793Z,4.90
2022-11-17T10:48:25.173Z,4.90
2022-11-17T10:50:55.092Z,4.80
2022-11-17T10:53:32.576Z,4.80
2022-11-17T10:56:06.946Z,4.80
2022-11-17T10:58:56.255Z,4.80
2022-11-17T11:01:31.473Z,4.80
2022-11-17T11:03:59.786Z,4.80
2022-11-17T11:06:29.440Z,4.80
2022-11-17T11:09:00.453Z,4.80
2022-11-17T11:11:47.678Z,4.80
2022-11-17T11:14:25.668Z,4.90
2022-11-17T11:16:55.909Z,4.90
2022-11-17T11:19:23.742Z,4.90
2022-11-17T11:22:03.931Z,4.90
2022-11-17T11:24:40.006Z,4.90
2022-11-17T11:27:24.482Z,4.90
2022-11-17T11:30:02.590Z,4.90
2022-11-17T11:32:41.851Z,4.90
2022-11-17T11:35:34.707Z,4.90
2022-11-17T11:38:14.679Z,4.90
2022-11-17T11:40:45.833Z,4.90
2022-11-17T11:43:28.685Z,4.90
2022-11-17T11:46:04.549Z,4.90
2022-11-17T11:48:34.724Z,4.90
2022-11-17T11:51:06.253Z,4.90
2022-11-17T11:53:43.680Z,4.90
2022-11-17T11:56:18.574Z,4.90
2022-11-17T11:58:52.116Z,4.90
2022-11-17T12:01:22.628Z,4.90
2022-11-17T12:04:00.593Z,4.90
2022-11-17T12:06:41.248Z,5.00
2022-11-17T12:09:36.630Z,4.90
2022-11-17T12:12:09.506Z,4.90
2022-11-17T12:14:38.759Z,4.90
2022-11-17T12:17:17.243Z,4.90
2022-11-17T12:19:53.984Z,4.90
2022-11-17T12:22:51.986Z,4.90
2022-11-17T12:25:22.751Z,4.90
2022-11-17T12:27:52.440Z,5.00
2022-11-17T12:30:52.810Z,4.90
2022-11-17T12:33:20.928Z,4.90
2022-11-17T12:36:30.187Z,4.90
2022-11-17T12:38:59.819Z,5.00
2022-11-17T12:42:05.163Z,5.00
2022-11-17T12:44:56.420Z,5.00
2022-11-17T12:47:25.648Z,5.00
2022-11-17T12:50:20.021Z,5.00
2022-11-17T12:53:07.202Z,5.00
2022-11-17T12:55:49.718Z,5.00
2022-11-17T12:58:24.149Z,5.00
2022-11-17T13:01:02.778Z,5.00
2022-11-17T13:03:46.430Z,5.00
2022-11-17T13:09:07.238Z,5.00
2022-11-17T13:11:35.632Z,5.00
2022-11-17T13:14:11.554Z,5.00
2022-11-17T13:16:46.089Z,5.00
2022-11-17T13:19:32.352Z,5.00
2022-11-17T13:22:02.350Z,4.90
2022-11-17T13:24:33.590Z,4.90
2022-11-17T13:27:02.191Z,4.90
2022-11-17T13:29:30.276Z,4.90
2022-11-17T13:32:17.612Z,4.90
2022-11-17T13:34:53.817Z,4.80
2022-11-17T13:37:23.922Z,4.80
2022-11-17T13:40:00.936Z,4.80
2022-11-17T13:42:32.501Z,4.80
2022-11-17T13:45:03.843Z,4.80
2022-11-17T13:47:46.474Z,4.80
2022-11-17T13:50:39.453Z,4.80
2022-11-17T13:53:23.009Z,4.80
2022-11-17T13:55:53.368Z,4.80
2022-11-17T13:58:27.162Z,4.80
2022-11-17T14:00:57.067Z,4.80
2022-11-17T14:03:37.166Z,4.80
2022-11-17T14:06:09.248Z,4.80
2022-11-17T14:08:38.842Z,4.80
2022-11-17T14:11:21.032Z,4.80
2022-11-17T14:13:50.450Z,4.80
2022-11-17T14:16:28.768Z,4.70
2022-11-17T14:18:59.285Z,4.80
2022-11-17T14:21:28.686Z,4.70
2022-11-17T14:24:05.645Z,4.80
2022-11-17T14:26:34.857Z,4.70
2022-11-17T14:29:03.264Z,4.70
2022-11-17T14:31:31.858Z,4.70
2022-11-17T14:33:59.784Z,4.70
2022-11-17T14:36:27.781Z,4.70
2022-11-17T14:38:55.995Z,4.70
2022-11-17T14:41:23.737Z,4.70
2022-11-17T14:43:52.889Z,4.60
2022-11-17T14:46:23.709Z,4.60
2022-11-17T14:48:52.452Z,4.60
2022-11-17T14:51:21.515Z,4.60
2022-11-17T14:53:49.824Z,4.60
2022-11-17T14:56:19.128Z,4.60
2022-11-17T14:58:47.496Z,4.60
2022-11-17T15:01:19.061Z,4.50
2022-11-17T15:03:47.515Z,4.50
2022-11-17T15:06:19.990Z,4.50
2022-11-17T15:08:48.412Z,4.50
2022-11-17T15:11:18.426Z,4.50
2022-11-17T15:13:46.365Z,4.50
2022-11-17T15:16:14.149Z,4.50
2022-11-17T15:18:46.018Z,4.40
2022-11-17T15:21:14.834Z,4.40
2022-11-17T15:23:43.656Z,4.40
2022-11-17T15:26:14.477Z,4.50
2022-11-17T15:28:43.097Z,4.40
2022-11-17T15:31:12.400Z,4.40
2022-11-17T15:33:43.107Z,4.40
2022-11-17T15:36:14.093Z,4.40
2022-11-17T15:38:42.179Z,4.40
2022-11-17T15:41:12.005Z,4.40
2022-11-17T15:43:41.343Z,4.40
2022-11-17T15:46:11.020Z,4.40
2022-11-17T15:48:42.319Z,4.40
2022-11-17T15:51:13.936Z,4.40
2022-11-17T15:53:42.995Z,4.40
2022-11-17T15:56:12.327Z,4.30
2022-11-17T15:58:41.288Z,4.30
2022-11-17T16:01:14.351Z,4.40
2022-11-17T16:03:43.863Z,4.40
2022-11-17T16:06:16.695Z,4.40
2022-11-17T16:08:44.580Z,4.30
2022-11-17T16:11:12.416Z,4.30
2022-11-17T16:13:40.142Z,4.30
2022-11-17T16:16:08.759Z,4.40
2022-11-17T16:18:38.678Z,4.30
2022-11-17T16:21:08.132Z,4.30
2022-11-17T16:23:40.865Z,4.30
2022-11-17T16:26:12.313Z,4.30
2022-11-17T16:28:40.279Z,4.30
2022-11-17T16:31:15.680Z,4.30
2022-11-17T16:33:49.120Z,4.30
2022-11-17T16:36:17.193Z,4.30
2022-11-17T16:39:00.539Z,4.30
2022-11-17T16:41:31.528Z,4.30
2022-11-17T16:43:59.304Z,4.30
2022-11-17T16:46:29.577Z,4.30
2022-11-17T16:48:58.127Z,4.30
2022-11-17T16:51:25.844Z,4.30
2022-11-17T16:53:58.286Z,4.30
2022-11-17T16:56:26.197Z,4.30
2022-11-17T16:58:54.617Z,4.30
2022-11-17T17:01:24.141Z,4.30
2022-11-17T17:03:56.685Z,4.30
2022-11-17T17:06:25.323Z,4.30
2022-11-17T17:08:57.986Z,4.30
2022-11-17T17:11:27.304Z,4.30
2022-11-17T17:13:56.219Z,4.40
2022-11-17T17:16:24.828Z,4.30
2022-11-17T17:18:56.079Z,4.30
2022-11-17T17:21:24.186Z,4.30
2022-11-17T17:23:51.975Z,4.30
2022-11-17T17:26:22.669Z,4.30
2022-11-17T17:28:52.511Z,4.30
2022-11-17T17:31:22.515Z,4.40
2022-11-17T17:33:51.344Z,4.40
2022-11-17T17:36:21.023Z,4.30
2022-11-17T17:38:55.610Z,4.30
2022-11-17T17:41:27.230Z,4.30
2022-11-17T17:43:57.514Z,4.30
2022-11-17T17:46:29.605Z,4.30
2022-11-17T17:48:58.025Z,4.30
2022-11-17T17:51:27.585Z,4.30
2022-11-17T17:53:58.147Z,4.30
2022-11-17T17:56:27.643Z,4.30
2022-11-17T17:58:55.953Z,4.30
2022-11-17T18:01:25.610Z,4.30
2022-11-17T18:04:00.792Z,4.30
2022-11-17T18:06:28.835Z,4.30
2022-11-17T18:08:57.810Z,4.30
2022-11-17T18:11:27.470Z,4.30
2022-11-17T18:13:55.501Z,4.30
2022-11-17T18:16:25.502Z,4.30
2022-11-17T18:18:58.090Z,4.30
2022-11-17T18:21:26.959Z,4.30
2022-11-17T18:23:55.677Z,4.30
2022-11-17T18:26:25.298Z,4.30
2022-11-17T18:28:56.752Z,4.30
2022-11-17T18:31:26.481Z,4.30
2022-11-17T18:33:56.214Z,4.30
2022-11-17T18:36:24.990Z,4.30
2022-11-17T18:38:53.197Z,4.30
2022-11-17T18:41:22.508Z,4.30
2022-11-17T18:43:50.467Z,4.30
2022-11-17T18:46:21.905Z,4.30
2022-11-17T18:48:51.866Z,4.30
2022-11-17T18:51:21.515Z,4.30
2022-11-17T18:53:50.147Z,4.30
2022-11-17T18:56:22.741Z,4.20
2022-11-17T18:58:50.896Z,4.20
2022-11-17T19:01:22.931Z,4.20
2022-11-17T19:03:52.715Z,4.20
2022-11-17T19:06:22.083Z,4.20
2022-11-17T19:08:51.747Z,4.20
2022-11-17T19:11:20.524Z,4.20
2022-11-17T19:13:48.634Z,4.20
2022-11-17T19:16:18.035Z,4.20
2022-11-17T19:18:48.451Z,4.20
2022-11-17T19:21:18.323Z,4.20
2022-11-17T19:23:51.332Z,4.20
2022-11-17T19:26:21.872Z,4.30
2022-11-17T19:28:49.884Z,4.30
2022-11-17T19:31:19.627Z,4.30
2022-11-17T19:33:49.375Z,4.30
2022-11-17T19:36:19.501Z,4.20
2022-11-17T19:38:49.871Z,4.20
2022-11-17T19:41:19.409Z,4.30
2022-11-17T19:43:47.340Z,4.20
2022-11-17T19:46:16.965Z,4.20
2022-11-17T19:48:45.610Z,4.20
2022-11-17T19:51:17.279Z,4.20
2022-11-17T19:53:45.226Z,4.20
2022-11-17T19:56:13.084Z,4.20
2022-11-17T19:58:42.152Z,4.10
2022-11-17T20:01:12.392Z,4.10
2022-11-17T20:03:40.967Z,4.10
2022-11-17T20:06:11.325Z,4.10
2022-11-17T20:08:40.579Z,4.00
2022-11-17T20:11:10.508Z,4.00
2022-11-17T20:13:42.104Z,4.00
2022-11-17T20:16:12.776Z,3.90
2022-11-17T20:18:41.729Z,3.90
2022-11-17T20:21:12.543Z,3.90
2022-11-17T20:23:41.816Z,3.90
2022-11-17T20:26:12.677Z,3.80
2022-11-17T20:28:40.725Z,3.80
2022-11-17T20:31:09.847Z,3.80
2022-11-17T20:33:38.020Z,3.80
2022-11-17T20:36:06.975Z,3.70
2022-11-17T20:38:35.986Z,3.80
2022-11-17T20:41:05.670Z,3.70
2022-11-17T20:43:33.553Z,3.70
2022-11-17T20:46:02.035Z,3.60
2022-11-17T20:48:30.755Z,3.60
2022-11-17T20:50:59.372Z,3.60
2022-11-17T20:53:27.601Z,3.60
2022-11-17T20:55:56.638Z,3.50
2022-11-17T20:58:26.132Z,3.50
2022-11-17T21:00:54.299Z,3.50
2022-11-17T21:03:22.309Z,3.50
2022-11-17T21:05:58.672Z,3.50
2022-11-17T21:08:27.640Z,3.50
2022-11-17T21:10:56.556Z,3.50
2022-11-17T21:13:26.088Z,3.50
2022-11-17T21:16:05.051Z,3.50
2022-11-17T21:18:33.261Z,3.50
2022-11-17T21:21:02.933Z,3.50
2022-11-17T21:23:30.698Z,3.50
2022-11-17T21:25:58.654Z,3.50
2022-11-17T21:28:28.031Z,3.50
2022-11-17T21:31:03.356Z,3.50
2022-11-17T21:33:31.099Z,3.50
2022-11-17T21:36:01.859Z,3.50
2022-11-17T21:38:30.274Z,3.50
2022-11-17T21:41:02.607Z,3.40
2022-11-17T21:43:32.022Z,3.40
2022-11-17T21:46:03.198Z,3.40
2022-11-17T21:48:31.127Z,3.50
2022-11-17T21:50:58.953Z,3.40
2022-11-17T21:53:26.756Z,3.40
2022-11-17T21:55:54.472Z,3.40
2022-11-17T21:58:22.581Z,3.40
2022-11-17T22:00:51.659Z,3.40
2022-11-17T22:03:19.883Z,3.40
2022-11-17T22:05:47.565Z,3.40
2022-11-17T22:08:15.376Z,3.40
2022-11-17T22:10:43.191Z,3.40
2022-11-17T22:13:12.499Z,3.40
2022-11-17T22:15:40.230Z,3.40
2022-11-17T22:18:11.987Z,3.40
2022-11-17T22:20:39.859Z,3.40
2022-11-17T22:23:07.687Z,3.40
2022-11-17T22:25:45.066Z,3.40
2022-11-17T22:28:14.676Z,3.40
2022-11-17T22:30:42.535Z,3.40
2022-11-17T22:33:11.649Z,3.40
2022-11-17T22:35:39.554Z,3.40
2022-11-17T22:38:07.301Z,3.40
2022-11-17T22:40:35.063Z,3.40
2022-11-17T22:43:04.574Z,3.40
2022-11-17T22:45:32.806Z,3.40
2022-11-17T22:48:00.725Z,3.40
2022-11-17T22:50:29.844Z,3.40
2022-11-17T22:52:57.577Z,3.30
2022-11-17T22:55:25.444Z,3.30
2022-11-17T22:57:53.143Z,3.40
2022-11-17T23:00:21.248Z,3.40
2022-11-17T23:02:49.156Z,3.30
2022-11-17T23:05:17.302Z,3.40
2022-11-17T23:07:46.397Z,3.30
2022-11-17T23:10:16.281Z,3.30
2022-11-17T23:12:44.155Z,3.30
2022-11-17T23:15:12.057Z,3.30
2022-11-17T23:17:44.094Z,3.30
2022-11-17T23:20:12.984Z,3.30
2022-11-17T23:22:40.727Z,3.30
2022-11-17T23:25:12.540Z,3.30
2022-11-17T23:27:40.287Z,3.30
2022-11-17T23:30:11.127Z,3.30
2022-11-17T23:32:38.816Z,3.30
2022-11-17T23:35:07.571Z,3.30
2022-11-17T23:37:35.378Z,3.30
2022-11-17T23:40:03.273Z,3.30
2022-11-17T23:42:33.075Z,3.30
2022-11-17T23:45:05.225Z,3.30
2022-11-17T23:47:32.990Z,3.30
2022-11-17T23:50:00.690Z,3.30
2022-11-17T23:52:28.405Z,3.30
2022-11-17T23:54:56.130Z,3.30
2022-11-17T23:57:23.927Z,3.30
2022-11-17T23:59:52.963Z,3.30
